sensor_id;sensor_type;location;lat;lon;timestamp;temperature;humidity
20740;DHT22;10530;49.968;19.844;2024-01-15T00:02:07;1.50;92.10
20740;DHT22;10530;49.968;19.844;2024-01-15T00:07:11;1.50;91.70
20740;DHT22;10530;49.968;19.844;2024-01-15T00:12:14;1.50;92.20
20740;DHT22;10530;49.968;19.844;2024-01-15T00:17:16;1.40;90.90
20740;DHT22;10530;49.968;19.844;2024-01-15T00:22:19;1.40;90.20
20740;DHT22;10530;49.968;19.844;2024-01-15T00:27:22;1.50;89.20
20740;DHT22;10530;49.968;19.844;2024-01-15T00:32:26;1.50;86.90
20740;DHT22;10530;49.968;19.844;2024-01-15T00:37:29;1.50;85.60
20740;DHT22;10530;49.968;19.844;2024-01-15T00:42:32;1.40;89.20
20740;DHT22;10530;49.968;19.844;2024-01-15T00:47:35;1.40;87.50
20740;DHT22;10530;49.968;19.844;2024-01-15T00:52:38;1.40;88.10
20740;DHT22;10530;49.968;19.844;2024-01-15T00:57:41;1.40;84.90
20740;DHT22;10530;49.968;19.844;2024-01-15T01:02:44;1.40;82.40
20740;DHT22;10530;49.968;19.844;2024-01-15T01:07:47;1.40;81.80
20740;DHT22;10530;49.968;19.844;2024-01-15T01:12:49;1.40;83.50
20740;DHT22;10530;49.968;19.844;2024-01-15T01:17:52;1.40;84.70
20740;DHT22;10530;49.968;19.844;2024-01-15T01:22:55;1.40;83.00
20740;DHT22;10530;49.968;19.844;2024-01-15T01:27:58;1.40;82.40
20740;DHT22;10530;49.968;19.844;2024-01-15T01:33:01;1.50;78.90
20740;DHT22;10530;49.968;19.844;2024-01-15T01:38:04;1.40;80.70
20740;DHT22;10530;49.968;19.844;2024-01-15T01:43:09;1.40;81.20
20740;DHT22;10530;49.968;19.844;2024-01-15T01:48:12;1.40;80.10
20740;DHT22;10530;49.968;19.844;2024-01-15T01:53:16;1.40;81.30
20740;DHT22;10530;49.968;19.844;2024-01-15T01:58:19;1.30;83.60
20740;DHT22;10530;49.968;19.844;2024-01-15T02:03:22;1.30;81.10
20740;DHT22;10530;49.968;19.844;2024-01-15T02:08:26;1.40;80.10
20740;DHT22;10530;49.968;19.844;2024-01-15T02:13:29;1.30;82.40
20740;DHT22;10530;49.968;19.844;2024-01-15T02:18:46;1.30;81.70
20740;DHT22;10530;49.968;19.844;2024-01-15T02:23:49;1.30;81.80
20740;DHT22;10530;49.968;19.844;2024-01-15T02:28:52;1.30;81.50
20740;DHT22;10530;49.968;19.844;2024-01-15T02:33:54;1.30;79.80
20740;DHT22;10530;49.968;19.844;2024-01-15T02:38:57;1.40;82.80
20740;DHT22;10530;49.968;19.844;2024-01-15T02:44:00;1.20;82.10
20740;DHT22;10530;49.968;19.844;2024-01-15T02:49:03;1.20;81.90
20740;DHT22;10530;49.968;19.844;2024-01-15T02:54:06;1.20;78.50
20740;DHT22;10530;49.968;19.844;2024-01-15T02:59:09;1.20;78.80
20740;DHT22;10530;49.968;19.844;2024-01-15T03:04:12;1.20;78.70
20740;DHT22;10530;49.968;19.844;2024-01-15T03:09:15;1.20;76.70
20740;DHT22;10530;49.968;19.844;2024-01-15T03:14:18;1.20;74.70
20740;DHT22;10530;49.968;19.844;2024-01-15T03:19:21;1.20;76.60
20740;DHT22;10530;49.968;19.844;2024-01-15T03:24:24;1.20;78.90
20740;DHT22;10530;49.968;19.844;2024-01-15T03:29:27;1.20;76.60
20740;DHT22;10530;49.968;19.844;2024-01-15T03:34:29;1.20;76.40
20740;DHT22;10530;49.968;19.844;2024-01-15T03:39:33;1.20;77.40
20740;DHT22;10530;49.968;19.844;2024-01-15T03:44:36;1.20;74.20
20740;DHT22;10530;49.968;19.844;2024-01-15T03:49:39;1.20;74.30
20740;DHT22;10530;49.968;19.844;2024-01-15T03:54:42;1.20;73.90
20740;DHT22;10530;49.968;19.844;2024-01-15T03:59:45;1.10;75.20
20740;DHT22;10530;49.968;19.844;2024-01-15T04:04:49;1.10;74.90
20740;DHT22;10530;49.968;19.844;2024-01-15T04:09:52;1.00;74.00
20740;DHT22;10530;49.968;19.844;2024-01-15T04:14:55;1.10;71.10
20740;DHT22;10530;49.968;19.844;2024-01-15T04:19:58;1.00;71.10
20740;DHT22;10530;49.968;19.844;2024-01-15T04:25:01;1.10;68.10
20740;DHT22;10530;49.968;19.844;2024-01-15T04:30:05;1.10;66.00
20740;DHT22;10530;49.968;19.844;2024-01-15T04:35:09;1.10;65.10
20740;DHT22;10530;49.968;19.844;2024-01-15T04:40:13;1.20;62.00
20740;DHT22;10530;49.968;19.844;2024-01-15T04:45:16;1.20;64.80
20740;DHT22;10530;49.968;19.844;2024-01-15T04:50:21;1.30;60.30
20740;DHT22;10530;49.968;19.844;2024-01-15T04:55:24;1.30;60.70
20740;DHT22;10530;49.968;19.844;2024-01-15T05:00:27;1.40;59.90
20740;DHT22;10530;49.968;19.844;2024-01-15T05:05:30;1.40;63.60
20740;DHT22;10530;49.968;19.844;2024-01-15T05:10:33;1.50;59.60
20740;DHT22;10530;49.968;19.844;2024-01-15T05:15:35;1.40;62.30
20740;DHT22;10530;49.968;19.844;2024-01-15T05:20:38;1.30;61.90
20740;DHT22;10530;49.968;19.844;2024-01-15T05:25:41;1.30;62.60
20740;DHT22;10530;49.968;19.844;2024-01-15T05:30:44;1.40;61.50
20740;DHT22;10530;49.968;19.844;2024-01-15T05:35:47;1.40;62.50
20740;DHT22;10530;49.968;19.844;2024-01-15T05:40:51;1.40;61.80
20740;DHT22;10530;49.968;19.844;2024-01-15T05:45:54;1.40;60.90
20740;DHT22;10530;49.968;19.844;2024-01-15T05:50:57;1.40;64.50
20740;DHT22;10530;49.968;19.844;2024-01-15T05:56:01;1.40;62.40
20740;DHT22;10530;49.968;19.844;2024-01-15T06:01:04;1.40;68.50
20740;DHT22;10530;49.968;19.844;2024-01-15T06:06:08;1.30;70.40
20740;DHT22;10530;49.968;19.844;2024-01-15T06:11:12;1.20;74.70
20740;DHT22;10530;49.968;19.844;2024-01-15T06:16:15;1.20;72.90
20740;DHT22;10530;49.968;19.844;2024-01-15T06:21:25;1.20;76.50
20740;DHT22;10530;49.968;19.844;2024-01-15T06:26:28;1.20;74.50
20740;DHT22;10530;49.968;19.844;2024-01-15T06:31:31;1.30;72.80
20740;DHT22;10530;49.968;19.844;2024-01-15T06:36:34;1.30;72.40
20740;DHT22;10530;49.968;19.844;2024-01-15T06:41:37;1.20;74.00
20740;DHT22;10530;49.968;19.844;2024-01-15T06:46:46;1.30;69.50
20740;DHT22;10530;49.968;19.844;2024-01-15T06:51:50;1.40;67.60
20740;DHT22;10530;49.968;19.844;2024-01-15T06:56:52;1.30;70.30
20740;DHT22;10530;49.968;19.844;2024-01-15T07:01:56;1.40;69.10
20740;DHT22;10530;49.968;19.844;2024-01-15T07:06:59;1.40;70.10
20740;DHT22;10530;49.968;19.844;2024-01-15T07:12:02;1.50;66.20
20740;DHT22;10530;49.968;19.844;2024-01-15T07:17:05;1.50;68.00
20740;DHT22;10530;49.968;19.844;2024-01-15T07:22:07;1.50;67.50
20740;DHT22;10530;49.968;19.844;2024-01-15T07:27:10;1.60;67.20
20740;DHT22;10530;49.968;19.844;2024-01-15T07:32:13;1.60;68.40
20740;DHT22;10530;49.968;19.844;2024-01-15T07:37:16;1.60;68.00
20740;DHT22;10530;49.968;19.844;2024-01-15T07:42:19;1.60;67.00
20740;DHT22;10530;49.968;19.844;2024-01-15T07:47:22;1.70;68.20
20740;DHT22;10530;49.968;19.844;2024-01-15T07:52:26;1.70;69.20
20740;DHT22;10530;49.968;19.844;2024-01-15T07:57:29;1.70;69.10
20740;DHT22;10530;49.968;19.844;2024-01-15T08:02:33;1.80;69.10
20740;DHT22;10530;49.968;19.844;2024-01-15T08:07:39;1.90;67.10
20740;DHT22;10530;49.968;19.844;2024-01-15T08:12:42;2.00;67.80
20740;DHT22;10530;49.968;19.844;2024-01-15T08:17:45;1.90;72.10
20740;DHT22;10530;49.968;19.844;2024-01-15T08:22:49;1.90;71.70
20740;DHT22;10530;49.968;19.844;2024-01-15T08:27:52;1.70;76.80
20740;DHT22;10530;49.968;19.844;2024-01-15T08:32:55;1.70;84.10
20740;DHT22;10530;49.968;19.844;2024-01-15T08:38:09;1.70;90.40
20740;DHT22;10530;49.968;19.844;2024-01-15T08:43:12;1.80;90.50
20740;DHT22;10530;49.968;19.844;2024-01-15T08:48:16;1.80;85.50
20740;DHT22;10530;49.968;19.844;2024-01-15T08:53:19;2.00;83.80
20740;DHT22;10530;49.968;19.844;2024-01-15T08:58:23;2.20;80.90
20740;DHT22;10530;49.968;19.844;2024-01-15T09:03:27;2.30;77.10
20740;DHT22;10530;49.968;19.844;2024-01-15T09:08:30;2.50;69.20
20740;DHT22;10530;49.968;19.844;2024-01-15T09:13:33;2.50;71.80
20740;DHT22;10530;49.968;19.844;2024-01-15T09:18:36;2.40;73.20
20740;DHT22;10530;49.968;19.844;2024-01-15T09:23:39;2.20;66.60
20740;DHT22;10530;49.968;19.844;2024-01-15T09:28:42;2.10;63.90
20740;DHT22;10530;49.968;19.844;2024-01-15T09:33:46;1.90;69.70
20740;DHT22;10530;49.968;19.844;2024-01-15T09:38:49;1.80;76.50
20740;DHT22;10530;49.968;19.844;2024-01-15T09:43:52;1.90;74.90
20740;DHT22;10530;49.968;19.844;2024-01-15T09:48:55;1.90;76.00
20740;DHT22;10530;49.968;19.844;2024-01-15T09:53:59;1.80;82.00
20740;DHT22;10530;49.968;19.844;2024-01-15T09:59:02;1.60;80.90
20740;DHT22;10530;49.968;19.844;2024-01-15T10:04:09;1.60;83.80
20740;DHT22;10530;49.968;19.844;2024-01-15T10:09:13;1.70;77.60
20740;DHT22;10530;49.968;19.844;2024-01-15T10:14:19;1.70;71.00
20740;DHT22;10530;49.968;19.844;2024-01-15T10:19:23;1.80;71.20
20740;DHT22;10530;49.968;19.844;2024-01-15T10:24:27;1.80;69.70
20740;DHT22;10530;49.968;19.844;2024-01-15T10:29:31;1.80;68.00
20740;DHT22;10530;49.968;19.844;2024-01-15T10:34:37;1.90;73.00
20740;DHT22;10530;49.968;19.844;2024-01-15T10:39:41;1.90;64.20
20740;DHT22;10530;49.968;19.844;2024-01-15T10:44:45;1.90;60.60
20740;DHT22;10530;49.968;19.844;2024-01-15T10:49:52;1.90;58.10
20740;DHT22;10530;49.968;19.844;2024-01-15T10:54:56;2.10;59.50
20740;DHT22;10530;49.968;19.844;2024-01-15T10:59:59;2.20;58.00
20740;DHT22;10530;49.968;19.844;2024-01-15T11:05:05;2.10;51.60
20740;DHT22;10530;49.968;19.844;2024-01-15T11:10:41;2.30;47.40
20740;DHT22;10530;49.968;19.844;2024-01-15T11:15:57;2.90;44.40
20740;DHT22;10530;49.968;19.844;2024-01-15T11:26:43;3.70;35.40
20740;DHT22;10530;49.968;19.844;2024-01-15T11:41:57;6.40;13.30
20740;DHT22;10530;49.968;19.844;2024-01-15T11:47:03;7.40;9.50
20740;DHT22;10530;49.968;19.844;2024-01-15T11:52:07;7.70;3.40
20740;DHT22;10530;49.968;19.844;2024-01-15T11:57:17;4.40;12.00
20740;DHT22;10530;49.968;19.844;2024-01-15T12:02:22;3.00;18.80
20740;DHT22;10530;49.968;19.844;2024-01-15T12:07:26;2.40;23.60
20740;DHT22;10530;49.968;19.844;2024-01-15T12:12:45;2.40;25.20
20740;DHT22;10530;49.968;19.844;2024-01-15T12:17:50;2.40;23.70
20740;DHT22;10530;49.968;19.844;2024-01-15T12:22:53;2.30;23.70
20740;DHT22;10530;49.968;19.844;2024-01-15T12:28:05;2.20;23.00
20740;DHT22;10530;49.968;19.844;2024-01-15T12:33:08;2.50;26.50
20740;DHT22;10530;49.968;19.844;2024-01-15T12:38:12;2.40;21.60
20740;DHT22;10530;49.968;19.844;2024-01-15T12:43:16;2.30;23.70
20740;DHT22;10530;49.968;19.844;2024-01-15T12:48:20;2.10;22.50
20740;DHT22;10530;49.968;19.844;2024-01-15T12:53:23;2.00;23.30
20740;DHT22;10530;49.968;19.844;2024-01-15T12:58:26;2.00;23.00
20740;DHT22;10530;49.968;19.844;2024-01-15T13:03:29;2.10;21.30
20740;DHT22;10530;49.968;19.844;2024-01-15T13:08:33;2.10;21.70
20740;DHT22;10530;49.968;19.844;2024-01-15T13:13:36;2.20;21.70
20740;DHT22;10530;49.968;19.844;2024-01-15T13:18:39;2.20;21.70
20740;DHT22;10530;49.968;19.844;2024-01-15T13:23:42;2.20;19.30
20740;DHT22;10530;49.968;19.844;2024-01-15T13:28:45;2.10;20.50
20740;DHT22;10530;49.968;19.844;2024-01-15T13:33:49;2.00;21.60
20740;DHT22;10530;49.968;19.844;2024-01-15T13:38:53;1.90;21.10
20740;DHT22;10530;49.968;19.844;2024-01-15T13:43:59;1.90;23.40
20740;DHT22;10530;49.968;19.844;2024-01-15T13:49:02;1.90;21.90
20740;DHT22;10530;49.968;19.844;2024-01-15T13:54:05;1.90;20.50
20740;DHT22;10530;49.968;19.844;2024-01-15T13:59:08;1.80;22.90
20740;DHT22;10530;49.968;19.844;2024-01-15T14:04:12;1.70;23.00
20740;DHT22;10530;49.968;19.844;2024-01-15T14:09:15;1.70;22.90
20740;DHT22;10530;49.968;19.844;2024-01-15T14:14:18;1.60;22.10
20740;DHT22;10530;49.968;19.844;2024-01-15T14:19:21;1.60;22.80
20740;DHT22;10530;49.968;19.844;2024-01-15T14:24:24;1.50;25.20
20740;DHT22;10530;49.968;19.844;2024-01-15T14:29:28;1.50;22.70
20740;DHT22;10530;49.968;19.844;2024-01-15T14:34:30;1.40;23.80
20740;DHT22;10530;49.968;19.844;2024-01-15T14:39:34;1.30;24.70
20740;DHT22;10530;49.968;19.844;2024-01-15T14:44:37;1.30;24.10
20740;DHT22;10530;49.968;19.844;2024-01-15T14:49:42;1.20;26.40
20740;DHT22;10530;49.968;19.844;2024-01-15T14:54:45;1.10;27.50
20740;DHT22;10530;49.968;19.844;2024-01-15T14:59:50;1.10;27.50
20740;DHT22;10530;49.968;19.844;2024-01-15T15:04:54;1.10;28.50
20740;DHT22;10530;49.968;19.844;2024-01-15T15:10:00;1.00;28.50
20740;DHT22;10530;49.968;19.844;2024-01-15T15:15:04;1.00;29.70
20740;DHT22;10530;49.968;19.844;2024-01-15T15:20:12;1.00;30.10
20740;DHT22;10530;49.968;19.844;2024-01-15T15:25:16;1.00;29.70
20740;DHT22;10530;49.968;19.844;2024-01-15T15:30:19;1.00;29.20
20740;DHT22;10530;49.968;19.844;2024-01-15T15:35:22;1.00;31.20
20740;DHT22;10530;49.968;19.844;2024-01-15T15:40:25;1.10;31.30
20740;DHT22;10530;49.968;19.844;2024-01-15T15:45:28;1.00;30.80
20740;DHT22;10530;49.968;19.844;2024-01-15T15:50:32;1.00;33.70
20740;DHT22;10530;49.968;19.844;2024-01-15T15:55:37;0.90;35.10
20740;DHT22;10530;49.968;19.844;2024-01-15T16:00:41;0.80;34.60
20740;DHT22;10530;49.968;19.844;2024-01-15T16:05:44;0.80;36.80
20740;DHT22;10530;49.968;19.844;2024-01-15T16:10:55;0.70;35.90
20740;DHT22;10530;49.968;19.844;2024-01-15T16:15:58;0.70;36.10
20740;DHT22;10530;49.968;19.844;2024-01-15T16:21:21;0.70;35.90
20740;DHT22;10530;49.968;19.844;2024-01-15T16:26:44;0.80;36.90
20740;DHT22;10530;49.968;19.844;2024-01-15T16:31:47;0.90;37.30
20740;DHT22;10530;49.968;19.844;2024-01-15T16:36:51;0.80;42.10
20740;DHT22;10530;49.968;19.844;2024-01-15T16:41:54;0.90;40.10
20740;DHT22;10530;49.968;19.844;2024-01-15T16:46:57;0.90;43.00
20740;DHT22;10530;49.968;19.844;2024-01-15T16:52:07;1.00;39.70
20740;DHT22;10530;49.968;19.844;2024-01-15T16:57:10;0.90;43.10
20740;DHT22;10530;49.968;19.844;2024-01-15T17:02:13;1.00;43.90
20740;DHT22;10530;49.968;19.844;2024-01-15T17:07:17;0.90;44.30
20740;DHT22;10530;49.968;19.844;2024-01-15T17:12:20;0.90;47.30
20740;DHT22;10530;49.968;19.844;2024-01-15T17:17:23;0.80;50.90
20740;DHT22;10530;49.968;19.844;2024-01-15T17:22:27;0.80;51.00
20740;DHT22;10530;49.968;19.844;2024-01-15T17:27:31;0.70;57.30
20740;DHT22;10530;49.968;19.844;2024-01-15T17:32:35;0.60;59.60
20740;DHT22;10530;49.968;19.844;2024-01-15T17:37:38;0.70;61.70
20740;DHT22;10530;49.968;19.844;2024-01-15T17:42:41;0.70;64.00
20740;DHT22;10530;49.968;19.844;2024-01-15T17:47:45;0.60;70.20
20740;DHT22;10530;49.968;19.844;2024-01-15T17:52:48;0.60;73.40
20740;DHT22;10530;49.968;19.844;2024-01-15T17:57:51;0.60;74.20
20740;DHT22;10530;49.968;19.844;2024-01-15T18:02:55;0.60;80.70
20740;DHT22;10530;49.968;19.844;2024-01-15T18:07:59;0.50;88.60
20740;DHT22;10530;49.968;19.844;2024-01-15T18:13:02;0.50;92.30
20740;DHT22;10530;49.968;19.844;2024-01-15T18:18:05;0.50;94.30
20740;DHT22;10530;49.968;19.844;2024-01-15T18:23:09;0.40;98.50
20740;DHT22;10530;49.968;19.844;2024-01-15T18:28:12;0.40;99.90
20740;DHT22;10530;49.968;19.844;2024-01-15T18:33:17;0.40;99.90
20740;DHT22;10530;49.968;19.844;2024-01-15T18:38:25;0.40;99.90
20740;DHT22;10530;49.968;19.844;2024-01-15T18:43:30;0.30;99.90
20740;DHT22;10530;49.968;19.844;2024-01-15T18:48:34;0.20;99.90
20740;DHT22;10530;49.968;19.844;2024-01-15T18:53:38;0.10;99.90
20740;DHT22;10530;49.968;19.844;2024-01-15T18:58:42;0.10;99.90
20740;DHT22;10530;49.968;19.844;2024-01-15T19:03:45;0.20;99.90
20740;DHT22;10530;49.968;19.844;2024-01-15T19:08:52;0.10;99.90
20740;DHT22;10530;49.968;19.844;2024-01-15T19:13:56;0.10;99.90
20740;DHT22;10530;49.968;19.844;2024-01-15T19:18:59;0.00;99.90
20740;DHT22;10530;49.968;19.844;2024-01-15T19:24:03;0.00;99.90
20740;DHT22;10530;49.968;19.844;2024-01-15T19:29:07;-0.10;99.90
20740;DHT22;10530;49.968;19.844;2024-01-15T19:34:11;-0.10;99.90
20740;DHT22;10530;49.968;19.844;2024-01-15T19:39:14;0.00;99.90
20740;DHT22;10530;49.968;19.844;2024-01-15T19:44:17;0.10;99.90
20740;DHT22;10530;49.968;19.844;2024-01-15T19:49:22;0.00;99.90
20740;DHT22;10530;49.968;19.844;2024-01-15T19:54:25;0.10;99.90
20740;DHT22;10530;49.968;19.844;2024-01-15T19:59:29;0.00;99.90
20740;DHT22;10530;49.968;19.844;2024-01-15T20:04:34;0.00;99.90
20740;DHT22;10530;49.968;19.844;2024-01-15T20:09:37;-0.10;99.90
20740;DHT22;10530;49.968;19.844;2024-01-15T20:14:40;-0.10;99.90
20740;DHT22;10530;49.968;19.844;2024-01-15T20:19:43;-0.10;99.90
20740;DHT22;10530;49.968;19.844;2024-01-15T20:24:47;0.00;99.90
20740;DHT22;10530;49.968;19.844;2024-01-15T20:29:50;-0.10;99.90
20740;DHT22;10530;49.968;19.844;2024-01-15T20:34:53;-0.10;99.90
20740;DHT22;10530;49.968;19.844;2024-01-15T20:39:57;0.10;99.90
20740;DHT22;10530;49.968;19.844;2024-01-15T20:45:00;0.20;99.90
20740;DHT22;10530;49.968;19.844;2024-01-15T20:50:05;0.30;98.40
20740;DHT22;10530;49.968;19.844;2024-01-15T20:55:09;0.40;95.30
20740;DHT22;10530;49.968;19.844;2024-01-15T21:00:13;0.50;92.50
20740;DHT22;10530;49.968;19.844;2024-01-15T21:05:16;0.60;89.90
20740;DHT22;10530;49.968;19.844;2024-01-15T21:10:21;0.60;92.70
20740;DHT22;10530;49.968;19.844;2024-01-15T21:15:24;0.60;93.90
20740;DHT22;10530;49.968;19.844;2024-01-15T21:20:27;0.60;96.00
20740;DHT22;10530;49.968;19.844;2024-01-15T21:25:30;0.60;94.60
20740;DHT22;10530;49.968;19.844;2024-01-15T21:30:34;0.70;90.20
20740;DHT22;10530;49.968;19.844;2024-01-15T21:35:38;0.70;89.10
20740;DHT22;10530;49.968;19.844;2024-01-15T21:40:42;0.70;86.50
20740;DHT22;10530;49.968;19.844;2024-01-15T21:45:45;0.70;88.20
20740;DHT22;10530;49.968;19.844;2024-01-15T21:50:48;0.60;90.40
20740;DHT22;10530;49.968;19.844;2024-01-15T21:55:51;0.60;91.60
20740;DHT22;10530;49.968;19.844;2024-01-15T22:00:55;0.60;92.30
20740;DHT22;10530;49.968;19.844;2024-01-15T22:05:58;0.50;93.20
20740;DHT22;10530;49.968;19.844;2024-01-15T22:11:01;0.50;94.00
20740;DHT22;10530;49.968;19.844;2024-01-15T22:16:06;0.50;92.10
20740;DHT22;10530;49.968;19.844;2024-01-15T22:21:09;0.50;91.10
20740;DHT22;10530;49.968;19.844;2024-01-15T22:26:12;0.50;92.70
20740;DHT22;10530;49.968;19.844;2024-01-15T22:31:16;0.50;93.60
20740;DHT22;10530;49.968;19.844;2024-01-15T22:36:19;0.40;93.10
20740;DHT22;10530;49.968;19.844;2024-01-15T22:41:23;0.40;93.10
20740;DHT22;10530;49.968;19.844;2024-01-15T22:46:26;0.50;91.60
20740;DHT22;10530;49.968;19.844;2024-01-15T22:51:29;0.40;92.60
20740;DHT22;10530;49.968;19.844;2024-01-15T22:56:32;0.40;92.20
20740;DHT22;10530;49.968;19.844;2024-01-15T23:01:35;0.30;91.90
20740;DHT22;10530;49.968;19.844;2024-01-15T23:06:39;0.30;92.90
20740;DHT22;10530;49.968;19.844;2024-01-15T23:11:46;0.30;93.40
20740;DHT22;10530;49.968;19.844;2024-01-15T23:16:50;0.30;92.60
20740;DHT22;10530;49.968;19.844;2024-01-15T23:21:53;0.30;93.00
20740;DHT22;10530;49.968;19.844;2024-01-15T23:26:56;0.40;92.30
20740;DHT22;10530;49.968;19.844;2024-01-15T23:31:59;0.40;91.90
20740;DHT22;10530;49.968;19.844;2024-01-15T23:37:02;0.40;93.20
20740;DHT22;10530;49.968;19.844;2024-01-15T23:42:04;0.40;92.00
20740;DHT22;10530;49.968;19.844;2024-01-15T23:47:07;0.40;92.70
20740;DHT22;10530;49.968;19.844;2024-01-15T23:52:10;0.50;94.70
20740;DHT22;10530;49.968;19.844;2024-01-15T23:57:13;-0.30;99.90
